KRBD/RBD METAR and TAF weather

Enter ICAO airport designator
Station Type Date Time Source
KRBD METAR 2021/06/22 23:53 UTC NOAA

KRBD 222353Z 14006KT 10SM BKN043 29/18 A2992 RMK AO2 SLP124 T02890183 10300 20272 58019


Station Type Date Time Source
KRBD Decoded METAR 2021/06/22 23:53 UTC NOAA

DALLAS EXECUTIVE AIRPORT, TX, United States (KRBD) 32-41N 096-52W 203M
Jun 22, 2021 - 07:53 PM EDT / 2021.06.22 2353 UTC
Wind: from the SE (140 degrees) at 7 MPH (6 KT):0
Visibility: 10 mile(s):0
Sky conditions: mostly cloudy
Temperature: 84.0 F (28.9 C)
Dew Point: 64.9 F (18.3 C)
Relative Humidity: 52%
Pressure (altimeter): 29.92 in. Hg (1013 hPa)
Pressure tendency: 0.06 inches (1.9 hPa) lower than three hours ago
ob: KRBD 222353Z 14006KT 10SM BKN043 29/18 A2992 RMK AO2 SLP124 T02890183 10300 20272 58019
cycle: 0

Station Type Date Time Source
KRBD TAF UTC NOAA

Error!

Example: see airport list